Williamsport Regional Airport
KIPT : now visible

Airfield :











YOU CAN JOIN US ON...

 
LOGIN :

Register | Disclaimer

   EN    FR    IT 

 









Legend :    VFR   Marginal VFR   IFR   Intensive IFR   Very Intensive IFR
Visi :
Ceiling :
>= 8 km
>= 3000ft
5 to 8 km
1000 to 3000 ft
1500m to 5 km
500 to 1000 ft
800 to 1500m
200 to 500 ft
< 800m
< 200 ft
Symbols :   Thunderstorms  Fog  Heavy snow  Heavy precipitations  Wind > 20 kt







- Airport Elevation : 529 ft
- IATA code : IPT


KIPT - Williamsport Regional

CURRENT METAR :
  • 210154Z VRB05KT 10SM CLR 18/08 A2972 RMK AO2 SLP061 T01780083

EXPIRED METARs :
  • 210054Z 15010KT 10SM FEW075 SCT100 17/08 A2968 RMK AO2 PK WND 21041/0001 WSHFT 2359 RAE31 TSB2359E14 SLP049 P0002 T01720083
  • 210035Z 17010G20KT 10SM SCT060 BKN070 OVC090 17/08 A2968 RMK AO2 PK WND 21041/0001 WSHFT 2359 RAE31 TSB2359E14 P0002 T01720083
  • 210014Z 15020G35KT 9SM VCTS -RA FEW050 OVC060 17/08 A2968 RMK AO2 PK WND 21041/0001 WSHFT 2359 TSB2359E14 PRESRR P0002 T01720083
  • 210005Z 19024G41KT 8SM TSRA SCT050 BKN060 OVC070 17/09 A2967 RMK AO2 PK WND 21041/0001 TSB2359 PRESRR P0002 T01720094
  • 202354Z 11005G18KT 10SM VCTS -RA BKN060 OVC075 20/07 A2964 RMK AO2 RAB46 SLP034 P0000 60000 T02000072 10250 20200 53030

TAF KIPT
Valid from the 21 at 01:00 until the 22 at 00:00 UTC


210115Z 2101/2124 15010KT P6SM FEW080 SCT100
FM210700 10004KT 6SM BR SCT040
FM211200 26005KT P6SM VCSH BKN025
KZNY FIR / North America



MET'MAP, your aeronautical weather chart ! - Copyright ORBIFLY December 2007 - Disclaimer

ORBIFLY MET'MAP TEAM :

Programming & Development : Alexandra Zaïnal
Concept & Development : Baudouin d'Aumeries
Co-Development & Prog : Marc-Olivier Méhu
Technical & hardware support : Manuel Goepfert

Contact : metmap@orbifly.com




SOURCES & CREDITS :

   NOAA       Earth
Advisory